Time;durP1;ratioP1;P1;durP2;ratioP2;P2;SDS_P1;SDS_P2;PMS_P1;PMS_P2;Temp;Humidity;BMP_temperature;BMP_pressure;BME280_temperature;BME280_humidity;BME280_pressure;Samples;Min_cycle;Max_cycle;Signal;HPM_P1;HPM_P2
2022/12/01 00:01:30;;;;;;;20.73;12.73;;;;;;;10.00;75.86;101302.31;5019817;28;20236;-63
2022/12/01 00:03:57;;;;;;;19.63;12.43;;;;;;;9.98;75.44;101304.22;5020636;28;20201;-61
2022/12/01 00:06:28;;;;;;;19.33;12.50;;;;;;;10.00;75.67;101304.97;5024939;28;20209;-63
2022/12/01 00:11:46;;;;;;;22.77;12.93;;;;;;;9.95;75.73;101301.81;5025660;28;20854;-61
2022/12/01 00:14:15;;;;;;;23.70;13.20;;;;;;;9.93;75.83;101306.44;5014716;28;20629;-61
2022/12/01 00:16:47;;;;;;;22.27;13.33;;;;;;;9.96;76.39;101310.59;5012076;28;20213;-62
2022/12/01 00:19:14;;;;;;;22.40;12.77;;;;;;;9.94;76.42;101308.06;5014344;28;20206;-62
2022/12/01 00:21:45;;;;;;;23.17;13.47;;;;;;;9.95;76.56;101307.13;5010090;28;20237;-61
2022/12/01 00:24:13;;;;;;;21.77;12.83;;;;;;;10.02;76.24;101310.97;5014087;28;20926;-63
2022/12/01 00:26:41;;;;;;;21.50;12.97;;;;;;;10.07;76.18;101311.44;5012917;28;20213;-62
2022/12/01 00:29:12;;;;;;;20.97;12.63;;;;;;;9.97;76.01;101302.53;5011583;28;20217;-63
2022/12/01 00:31:40;;;;;;;25.10;12.23;;;;;;;9.82;76.70;101309.09;5012743;28;20216;-61
2022/12/01 00:34:21;;;;;;;20.10;12.13;;;;;;;9.87;77.01;101312.19;5015505;28;20675;-62
2022/12/01 00:36:49;;;;;;;18.70;12.20;;;;;;;9.93;76.65;101314.38;5017644;28;20700;-61
2022/12/01 00:39:17;;;;;;;19.03;12.20;;;;;;;9.92;76.61;101309.19;5012954;28;20234;-63
2022/12/01 00:41:45;;;;;;;20.77;11.67;;;;;;;10.02;76.26;101312.78;5010657;28;20296;-61
2022/12/01 00:44:12;;;;;;;20.80;11.80;;;;;;;9.96;76.50;101318.56;5014392;28;20204;-63
2022/12/01 00:46:40;;;;;;;21.17;11.77;;;;;;;9.84;76.11;101314.25;5013381;28;20209;-62
2022/12/01 00:49:12;;;;;;;19.17;9.87;;;;;;;9.62;75.72;101312.47;5014558;28;20205;-61
2022/12/01 00:51:40;;;;;;;20.10;10.53;;;;;;;9.48;76.48;101310.94;5010525;28;20918;-62
2022/12/01 00:54:08;;;;;;;21.73;10.67;;;;;;;9.42;76.76;101321.97;5017522;28;20798;-60
2022/12/01 00:56:36;;;;;;;20.07;10.77;;;;;;;9.43;77.24;101324.50;5012527;28;20654;-62
2022/12/01 00:59:03;;;;;;;20.53;10.23;;;;;;;9.50;76.85;101319.56;5012800;28;20217;-61
2022/12/01 01:01:31;;;;;;;19.77;10.23;;;;;;;9.51;76.64;101329.19;5014029;28;21040;-62
2022/12/01 01:03:59;;;;;;;17.83;10.23;;;;;;;9.46;76.73;101338.47;5013182;28;20236;-62
2022/12/01 01:06:28;;;;;;;20.33;10.40;;;;;;;9.40;77.27;101323.91;5010580;28;20205;-62
2022/12/01 01:08:56;;;;;;;19.30;9.80;;;;;;;9.47;76.61;101332.22;5009752;28;20221;-62
2022/12/01 01:11:25;;;;;;;18.17;10.00;;;;;;;9.43;76.87;101326.31;5010818;28;20223;-63
2022/12/01 01:13:53;;;;;;;21.13;9.60;;;;;;;9.44;77.21;101331.50;5013013;28;20241;-61
2022/12/01 01:16:21;;;;;;;20.10;9.67;;;;;;;9.41;77.32;101337.00;5008862;28;20667;-61
2022/12/01 01:18:49;;;;;;;21.43;10.47;;;;;;;9.44;77.40;101334.13;5012611;28;20603;-61
2022/12/01 01:21:19;;;;;;;18.97;9.77;;;;;;;9.50;77.02;101334.63;5011780;28;20216;-62
2022/12/01 01:23:49;;;;;;;21.00;9.80;;;;;;;9.40;77.36;101332.72;5012468;28;20299;-62
2022/12/01 01:26:19;;;;;;;18.33;9.20;;;;;;;9.39;77.02;101336.31;5010251;28;20217;-62
2022/12/01 01:28:48;;;;;;;20.60;9.53;;;;;;;9.37;77.19;101340.88;5016700;28;20210;-61
2022/12/01 01:31:19;;;;;;;23.17;10.50;;;;;;;9.39;76.80;101333.66;5012501;28;20554;-61
2022/12/01 01:33:47;;;;;;;23.50;10.30;;;;;;;9.31;76.90;101336.06;5012332;28;20205;-62
2022/12/01 01:36:17;;;;;;;23.33;10.93;;;;;;;9.25;77.49;101340.97;5016607;28;20238;-62
2022/12/01 01:38:45;;;;;;;19.67;9.83;;;;;;;9.23;77.97;101341.13;5011002;28;20662;-60
2022/12/01 01:41:15;;;;;;;23.73;10.03;;;;;;;9.18;78.03;101340.59;5012430;28;20797;-60
2022/12/01 01:43:45;;;;;;;22.03;11.03;;;;;;;9.19;78.21;101342.28;5012439;28;20702;-61
2022/12/01 01:46:15;;;;;;;28.97;11.63;;;;;;;9.20;78.19;101343.16;5018745;28;20208;-61
2022/12/01 01:48:47;;;;;;;20.93;9.67;;;;;;;9.25;78.28;101347.09;5010570;28;20308;-62
2022/12/01 01:51:18;;;;;;;21.43;10.60;;;;;;;9.24;78.18;101344.56;5022625;28;20201;-61
2022/12/01 01:53:49;;;;;;;18.53;9.47;;;;;;;9.22;78.54;101355.31;5019332;28;20825;-62
2022/12/01 01:56:19;;;;;;;22.53;10.40;;;;;;;9.24;78.94;101353.34;5013823;28;20650;-62
2022/12/01 01:58:47;;;;;;;22.20;11.43;;;;;;;9.22;79.03;101355.31;5016151;28;20201;-62
2022/12/01 02:01:15;;;;;;;20.10;10.00;;;;;;;9.12;79.75;101356.97;5016573;28;20217;-60
2022/12/01 02:03:45;;;;;;;19.20;10.57;;;;;;;9.05;80.15;101361.03;5011446;28;20233;-61
2022/12/01 02:06:12;;;;;;;21.57;10.10;;;;;;;9.10;80.44;101358.03;5019817;28;20799;-62
2022/12/01 02:08:40;;;;;;;18.97;9.93;;;;;;;9.17;80.07;101357.44;5018276;28;20204;-61
2022/12/01 02:11:47;;;;;;;18.57;10.50;;;;;;;9.15;80.04;101356.72;5020443;28;20232;-61
2022/12/01 02:14:41;;;;;;;23.93;10.90;;;;;;;9.25;79.60;101367.44;5015926;28;20239;-62
2022/12/01 02:17:17;;;;;;;21.73;9.93;;;;;;;9.18;79.26;101363.59;5015690;28;20897;-60
2022/12/01 02:20:04;;;;;;;23.40;10.50;;;;;;;9.06;79.89;101358.25;5011998;28;20213;-62
2022/12/01 02:22:48;;;;;;;27.83;11.77;;;;;;;8.99;80.38;101350.91;5011824;28;20208;-61
2022/12/01 02:25:33;;;;;;;21.07;10.23;;;;;;;8.96;80.78;101352.00;5009719;28;22006;-61
2022/12/01 02:28:29;;;;;;;25.37;11.77;;;;;;;8.97;80.72;101352.84;5016074;28;20211;-61
2022/12/01 02:31:02;;;;;;;22.23;11.30;;;;;;;9.02;80.38;101355.97;5001763;28;20209;-62
2022/12/01 02:33:38;;;;;;;22.73;10.90;;;;;;;9.17;79.90;101354.81;5014064;28;20211;-61
2022/12/01 02:36:15;;;;;;;25.40;12.27;;;;;;;9.11;79.03;101355.28;5009675;28;20631;-61
2022/12/01 02:38:51;;;;;;;26.20;12.00;;;;;;;9.02;79.78;101350.69;5013472;28;20957;-60
2022/12/01 02:41:25;;;;;;;26.07;12.37;;;;;;;9.03;79.38;101347.94;5011412;28;20237;-61
2022/12/01 02:43:59;;;;;;;26.00;12.37;;;;;;;8.94;80.16;101353.06;5018628;28;20216;-62
2022/12/01 02:46:33;;;;;;;25.00;12.87;;;;;;;9.05;79.82;101347.81;5014999;28;20229;-61
2022/12/01 02:49:07;;;;;;;23.43;11.93;;;;;;;9.04;80.03;101349.63;5017596;28;20213;-61
2022/12/01 02:51:39;;;;;;;24.80;13.07;;;;;;;8.99;79.75;101340.31;5008891;28;20220;-62
2022/12/01 02:54:08;;;;;;;23.00;11.73;;;;;;;9.00;80.25;101350.78;5010572;28;20223;-61
2022/12/01 02:56:38;;;;;;;28.57;13.27;;;;;;;8.92;80.37;101349.69;5012836;28;20315;-61
2022/12/01 02:59:09;;;;;;;28.37;13.23;;;;;;;8.89;80.43;101353.41;5009457;28;20219;-61
2022/12/01 03:01:53;;;;;;;28.10;13.23;;;;;;;8.96;80.49;101341.41;5010403;28;20292;-62
2022/12/01 03:04:46;;;;;;;26.37;12.73;;;;;;;8.93;80.25;101351.38;5014472;28;20575;-62
2022/12/01 03:07:31;;;;;;;26.93;13.93;;;;;;;8.87;80.45;101346.56;5015753;28;20212;-61
2022/12/01 03:10:12;;;;;;;29.43;13.37;;;;;;;8.92;79.79;101342.59;5014311;28;20639;-61
2022/12/01 03:12:50;;;;;;;26.40;12.73;;;;;;;8.91;80.07;101348.00;5007132;28;20300;-63
2022/12/01 03:15:30;;;;;;;27.03;13.10;;;;;;;9.00;79.58;101348.16;5014833;28;20215;-61
2022/12/01 03:18:06;;;;;;;28.83;14.70;;;;;;;9.07;79.31;101340.59;5017183;28;20249;-62
2022/12/01 03:20:40;;;;;;;28.67;13.63;;;;;;;9.16;78.91;101342.53;5012189;28;20708;-62
2022/12/01 03:23:12;;;;;;;26.50;13.37;;;;;;;9.15;78.61;101334.72;5011117;28;20741;-60
2022/12/01 03:25:44;;;;;;;27.77;13.73;;;;;;;9.18;78.50;101339.75;5016640;28;20201;-62
2022/12/01 03:28:14;;;;;;;31.37;14.60;;;;;;;9.07;79.30;101343.22;5014740;28;20220;-63
2022/12/01 03:30:55;;;;;;;27.70;13.57;;;;;;;9.09;79.67;101343.13;5013371;28;20295;-62
2022/12/01 03:33:29;;;;;;;26.03;13.63;;;;;;;9.16;79.65;101337.22;5016642;28;20227;-61
2022/12/01 03:36:03;;;;;;;25.13;13.40;;;;;;;9.10;79.30;101337.72;5014831;28;20211;-62
2022/12/01 03:38:32;;;;;;;28.90;13.77;;;;;;;9.13;79.80;101344.56;5010777;28;20223;-60
2022/12/01 03:41:05;;;;;;;30.73;15.20;;;;;;;9.06;80.22;101339.75;5018839;28;20213;-63
2022/12/01 03:43:39;;;;;;;27.20;13.40;;;;;;;9.04;80.45;101344.31;5013602;28;20241;-61
2022/12/01 03:46:12;;;;;;;28.20;13.90;;;;;;;9.05;80.48;101345.16;5014124;28;20208;-61
2022/12/01 03:48:42;;;;;;;24.37;12.57;;;;;;;9.02;80.73;101348.03;5011379;28;20213;-60
2022/12/01 03:51:15;;;;;;;27.90;14.50;;;;;;;9.09;80.79;101345.75;5015604;28;20209;-60
2022/12/01 03:53:52;;;;;;;32.33;15.30;;;;;;;9.17;80.36;101346.84;5011853;28;21047;-60
2022/12/01 03:56:24;;;;;;;30.63;15.10;;;;;;;9.23;79.69;101343.75;5019222;28;20248;-63
2022/12/01 03:58:56;;;;;;;30.07;15.60;;;;;;;9.15;79.50;101346.13;5013241;28;20208;-62
2022/12/01 04:01:25;;;;;;;32.57;16.87;;;;;;;9.04;79.69;101351.41;5017114;28;20219;-62
2022/12/01 04:03:54;;;;;;;31.10;15.30;;;;;;;8.98;79.54;101346.56;5016195;28;20715;-62
2022/12/01 04:06:22;;;;;;;33.40;16.73;;;;;;;9.09;78.75;101351.91;5016196;28;20205;-62
2022/12/01 04:08:49;;;;;;;30.17;15.90;;;;;;;9.06;78.28;101358.25;5016781;28;20228;-61
2022/12/01 04:14:02;;;;;;;30.97;15.10;;;;;;;9.11;78.81;101363.22;5017376;28;20242;-62
2022/12/01 04:16:30;;;;;;;30.80;16.00;;;;;;;9.13;78.67;101356.00;5018029;28;20209;-63
2022/12/01 04:18:59;;;;;;;34.07;16.90;;;;;;;9.11;79.04;101351.78;5014413;28;20946;-62
2022/12/01 04:21:27;;;;;;;33.93;17.40;;;;;;;9.00;79.85;101361.38;5012423;28;20201;-62
2022/12/01 04:24:00;;;;;;;32.00;16.43;;;;;;;9.04;80.19;101362.00;5013785;28;20232;-61
2022/12/01 04:26:29;;;;;;;35.30;16.03;;;;;;;9.12;79.84;101356.97;5021540;28;20208;-62
2022/12/01 04:28:57;;;;;;;29.17;15.47;;;;;;;9.16;79.13;101358.41;5017943;28;20214;-62
2022/12/01 04:31:25;;;;;;;28.60;15.07;;;;;;;9.16;77.20;101355.75;5013581;28;20213;-62
2022/12/01 04:33:54;;;;;;;27.57;14.30;;;;;;;9.14;75.84;101368.28;5011375;28;20231;-61
2022/12/01 04:36:24;;;;;;;26.93;14.77;;;;;;;9.06;74.92;101368.00;5016208;28;20221;-61
2022/12/01 04:38:52;;;;;;;24.27;13.67;;;;;;;9.02;74.31;101356.81;5018261;28;20583;-61
2022/12/01 04:41:20;;;;;;;24.67;13.27;;;;;;;9.04;72.91;101367.28;5017890;28;20209;-61
2022/12/01 04:43:48;;;;;;;26.73;13.37;;;;;;;9.04;72.99;101364.66;5011910;28;20244;-62
2022/12/01 04:46:15;;;;;;;24.47;13.43;;;;;;;9.10;72.98;101358.88;5020797;28;20438;-61
2022/12/01 04:48:43;;;;;;;22.87;13.50;;;;;;;9.06;72.78;101362.69;5010681;28;20232;-61
2022/12/01 04:51:11;;;;;;;25.17;14.60;;;;;;;8.96;71.45;101367.03;5021848;28;20685;-61
2022/12/01 04:53:40;;;;;;;22.97;12.67;;;;;;;8.94;72.43;101367.16;5014865;28;20208;-62
2022/12/01 04:56:08;;;;;;;28.03;13.40;;;;;;;8.89;71.73;101363.13;5015773;28;20310;-61
2022/12/01 04:58:37;;;;;;;23.47;13.80;;;;;;;8.89;71.62;101363.97;5015592;28;20223;-63
2022/12/01 05:01:06;;;;;;;24.97;13.87;;;;;;;8.94;71.48;101363.66;5016817;28;20215;-63
2022/12/01 05:03:37;;;;;;;26.67;14.07;;;;;;;8.85;71.54;101370.47;5013238;28;20319;-62
2022/12/01 05:06:07;;;;;;;27.00;14.77;;;;;;;8.91;72.07;101364.72;5015816;28;20226;-61
2022/12/01 05:08:35;;;;;;;27.17;15.77;;;;;;;8.96;72.82;101367.03;5015948;28;20557;-61
2022/12/01 05:11:06;;;;;;;27.93;15.27;;;;;;;8.96;73.08;101364.38;5017217;28;20235;-61
2022/12/01 05:13:34;;;;;;;30.93;16.50;;;;;;;8.98;73.23;101365.09;5014943;28;20338;-62
2022/12/01 05:16:06;;;;;;;33.40;17.47;;;;;;;9.02;74.06;101370.06;5018028;28;20217;-62
2022/12/01 05:18:34;;;;;;;30.87;16.23;;;;;;;8.96;74.81;101372.31;5015203;28;20258;-63
2022/12/01 05:21:03;;;;;;;30.50;16.67;;;;;;;8.86;74.36;101372.16;5008510;28;20213;-62
2022/12/01 05:23:33;;;;;;;29.77;15.60;;;;;;;8.83;74.25;101366.25;5014651;28;20669;-62
2022/12/01 05:26:01;;;;;;;25.17;14.07;;;;;;;8.81;74.07;101373.44;5011051;28;20232;-62
2022/12/01 05:28:31;;;;;;;25.23;14.40;;;;;;;8.82;72.93;101377.78;5012887;28;20207;-60
2022/12/01 05:30:59;;;;;;;28.03;13.37;;;;;;;8.83;71.24;101376.84;5013242;28;20238;-62
2022/12/01 05:33:31;;;;;;;23.63;13.40;;;;;;;8.84;71.05;101375.88;5012435;28;20731;-61
2022/12/01 05:35:59;;;;;;;22.80;12.17;;;;;;;8.85;70.08;101375.78;5013826;28;20209;-61
2022/12/01 05:38:26;;;;;;;23.53;13.43;;;;;;;8.82;69.15;101369.84;5014325;28;20216;-61
2022/12/01 05:40:55;;;;;;;25.63;13.07;;;;;;;8.74;68.25;101372.22;5012536;28;20290;-61
2022/12/01 05:43:23;;;;;;;22.50;12.93;;;;;;;8.72;67.97;101379.44;5016348;28;20205;-61
2022/12/01 05:45:57;;;;;;;22.87;12.83;;;;;;;8.68;67.51;101366.44;5012629;28;20229;-62
2022/12/01 05:48:25;;;;;;;22.10;12.50;;;;;;;8.66;68.11;101370.16;5012980;28;20212;-62
2022/12/01 05:50:53;;;;;;;25.03;12.67;;;;;;;8.72;67.46;101368.84;5011464;28;20245;-62
2022/12/01 05:53:21;;;;;;;20.93;11.67;;;;;;;8.69;66.24;101377.88;5013433;28;20220;-61
2022/12/01 05:55:53;;;;;;;20.27;12.17;;;;;;;8.66;66.36;101381.59;5014448;28;20215;-62
2022/12/01 05:58:20;;;;;;;22.67;12.53;;;;;;;8.60;66.41;101378.56;5019806;28;20204;-62
2022/12/01 06:00:48;;;;;;;20.47;11.63;;;;;;;8.71;66.51;101393.63;5013801;28;20227;-61
2022/12/01 06:03:17;;;;;;;21.63;11.40;;;;;;;8.68;66.60;101384.13;5019151;28;20215;-61
2022/12/01 06:05:45;;;;;;;22.93;10.83;;;;;;;8.68;66.19;101384.13;5025768;28;20670;-61
2022/12/01 06:08:12;;;;;;;24.73;13.13;;;;;;;8.72;65.73;101390.00;5022332;28;20215;-61
2022/12/01 06:10:40;;;;;;;23.13;12.70;;;;;;;8.72;65.96;101390.00;5016082;28;20720;-61
2022/12/01 06:13:08;;;;;;;21.90;12.03;;;;;;;8.73;66.23;101392.53;5018855;28;20244;-62
2022/12/01 06:15:36;;;;;;;24.80;12.80;;;;;;;8.77;66.30;101394.00;5016206;28;20708;-61
2022/12/01 06:18:04;;;;;;;21.73;12.47;;;;;;;8.66;66.07;101391.31;5012127;28;20209;-62
2022/12/01 06:20:33;;;;;;;22.20;12.57;;;;;;;8.63;66.46;101392.38;5015283;28;20242;-61
2022/12/01 06:23:01;;;;;;;24.20;13.23;;;;;;;8.66;65.79;101402.75;5018461;28;20216;-62
2022/12/01 06:25:28;;;;;;;21.90;11.57;;;;;;;8.62;65.36;101395.97;5009353;28;20236;-62
2022/12/01 06:27:57;;;;;;;21.50;11.97;;;;;;;8.60;65.46;101399.72;5012005;28;20788;-62
2022/12/01 06:30:25;;;;;;;26.10;13.30;;;;;;;8.62;65.51;101400.41;5008900;28;20214;-62
2022/12/01 06:32:53;;;;;;;22.63;12.37;;;;;;;8.71;65.54;101401.56;5010594;28;20645;-63
2022/12/01 06:35:21;;;;;;;20.80;11.73;;;;;;;8.70;65.29;101392.78;5011399;28;20198;-61
2022/12/01 06:37:52;;;;;;;25.50;12.53;;;;;;;8.70;65.47;101397.22;5011579;28;20227;-62
2022/12/01 06:40:21;;;;;;;23.37;12.83;;;;;;;8.64;65.70;101399.34;5010875;28;20244;-62
2022/12/01 06:42:48;;;;;;;27.87;13.93;;;;;;;8.67;65.86;101408.88;5010951;28;20234;-62
2022/12/01 06:45:16;;;;;;;24.33;13.17;;;;;;;8.61;66.07;101404.88;5017820;28;20232;-61
2022/12/01 06:47:46;;;;;;;24.90;13.47;;;;;;;8.63;66.79;101407.41;5010613;28;20213;-62
2022/12/01 06:50:14;;;;;;;23.73;12.80;;;;;;;8.56;67.15;101409.66;5011601;28;20383;-61
2022/12/01 06:52:42;;;;;;;24.57;13.00;;;;;;;8.54;66.58;101402.78;5009757;28;20660;-62
2022/12/01 06:55:11;;;;;;;23.70;13.17;;;;;;;8.48;65.81;101419.94;5015200;28;21968;-62
2022/12/01 06:57:39;;;;;;;22.30;12.50;;;;;;;8.51;65.83;101417.09;5009187;28;20316;-62
2022/12/01 07:00:08;;;;;;;27.30;13.93;;;;;;;8.50;66.23;101423.31;5007862;28;20208;-63
2022/12/01 07:02:37;;;;;;;23.03;13.67;;;;;;;8.39;65.99;101417.97;5011182;28;20571;-61
2022/12/01 07:05:06;;;;;;;23.40;12.23;;;;;;;8.40;66.29;101419.66;5014002;28;20224;-62
2022/12/01 07:07:36;;;;;;;27.87;12.97;;;;;;;8.37;65.19;101419.88;5010321;28;20623;-62
2022/12/01 07:10:04;;;;;;;23.57;12.43;;;;;;;8.39;65.99;101423.25;5010259;28;20228;-61
2022/12/01 07:12:33;;;;;;;26.30;13.47;;;;;;;8.40;65.49;101422.31;5011632;28;20332;-61
2022/12/01 07:15:01;;;;;;;23.10;11.90;;;;;;;8.41;66.32;101434.56;5011140;28;20219;-62
2022/12/01 07:17:29;;;;;;;23.23;12.67;;;;;;;8.43;66.39;101427.38;5017866;28;21131;-61
2022/12/01 07:19:57;;;;;;;26.80;12.80;;;;;;;8.46;65.57;101428.94;5011509;28;20208;-61
2022/12/01 07:22:25;;;;;;;25.63;13.90;;;;;;;8.52;65.54;101436.44;5008134;28;20216;-62
2022/12/01 07:24:59;;;;;;;25.97;12.53;;;;;;;8.48;64.91;101433.16;5011010;28;20670;-62
2022/12/01 07:27:29;;;;;;;27.20;13.47;;;;;;;8.43;65.25;101434.47;5013404;28;20219;-63
2022/12/01 07:29:58;;;;;;;26.90;12.70;;;;;;;8.46;65.07;101437.72;5008861;28;20211;-63
2022/12/01 07:32:26;;;;;;;21.43;12.37;;;;;;;8.53;64.66;101449.53;5007899;28;20212;-62
2022/12/01 07:34:54;;;;;;;23.33;12.87;;;;;;;8.52;63.87;101447.84;5013405;28;20986;-64
2022/12/01 07:37:21;;;;;;;24.43;13.40;;;;;;;8.49;64.43;101452.50;5006496;28;20211;-64
2022/12/01 07:39:52;;;;;;;32.03;13.90;;;;;;;8.53;65.05;101454.00;5003909;28;21203;-65
2022/12/01 07:42:19;;;;;;;26.20;12.57;;;;;;;8.54;64.35;101460.94;5012154;28;20212;-65
2022/12/01 07:44:47;;;;;;;23.27;12.40;;;;;;;8.51;64.38;101462.03;5015400;28;20207;-64
2022/12/01 07:47:16;;;;;;;25.93;13.37;;;;;;;8.52;64.80;101458.44;5016093;28;20259;-64
2022/12/01 07:49:46;;;;;;;25.83;13.30;;;;;;;8.50;64.84;101455.06;5016933;28;20219;-64
2022/12/01 07:52:14;;;;;;;27.83;13.50;;;;;;;8.51;64.83;101456.75;5026728;28;20214;-65
2022/12/01 07:54:42;;;;;;;26.33;13.13;;;;;;;8.47;64.39;101465.84;5020428;28;20326;-65
2022/12/01 07:57:13;;;;;;;26.67;13.07;;;;;;;8.48;64.69;101472.81;5020266;28;20227;-64
2022/12/01 07:59:41;;;;;;;27.67;13.90;;;;;;;8.40;64.10;101469.03;5016471;28;20213;-64
2022/12/01 08:02:09;;;;;;;24.27;13.23;;;;;;;8.36;64.51;101472.84;5016725;28;20300;-66
2022/12/01 08:04:39;;;;;;;27.57;14.07;;;;;;;8.39;64.62;101473.47;5001573;28;20216;-65
2022/12/01 08:07:07;;;;;;;25.13;13.27;;;;;;;8.36;64.12;101473.69;5026019;28;20224;-63
2022/12/01 08:09:34;;;;;;;23.73;13.20;;;;;;;8.22;63.00;101466.72;5018971;28;20303;-64
2022/12/01 08:12:02;;;;;;;25.20;13.30;;;;;;;8.23;63.87;101471.06;5016141;28;20239;-65
2022/12/01 08:14:30;;;;;;;25.67;12.97;;;;;;;8.25;63.85;101470.94;5018655;28;20240;-64
2022/12/01 08:16:57;;;;;;;25.20;13.53;;;;;;;8.28;64.19;101478.63;5017238;28;20250;-65
2022/12/01 08:19:26;;;;;;;26.27;13.03;;;;;;;8.25;63.48;101468.31;5014749;28;21209;-65
2022/12/01 08:21:55;;;;;;;25.90;12.90;;;;;;;8.24;63.60;101474.53;5018421;28;20222;-65
2022/12/01 08:24:24;;;;;;;24.90;14.20;;;;;;;8.22;63.29;101471.16;5013453;28;20295;-64
2022/12/01 08:26:52;;;;;;;29.33;14.40;;;;;;;8.27;63.75;101472.50;5015515;28;20448;-65
2022/12/01 08:29:19;;;;;;;24.00;13.83;;;;;;;8.39;63.74;101484.03;5015852;28;20596;-64
2022/12/01 08:31:47;;;;;;;24.20;13.10;;;;;;;8.33;63.78;101478.38;5020103;28;20219;-65
2022/12/01 08:34:15;;;;;;;30.27;13.33;;;;;;;8.36;64.07;101478.97;5017593;28;20213;-65
2022/12/01 08:36:43;;;;;;;27.93;14.80;;;;;;;8.41;64.16;101484.78;5023200;28;20216;-66
2022/12/01 08:39:12;;;;;;;27.87;14.60;;;;;;;8.47;63.73;101476.41;5021738;28;20206;-66
2022/12/01 08:41:40;;;;;;;32.73;15.60;;;;;;;8.48;64.21;101477.25;5017672;28;20219;-64
2022/12/01 08:44:09;;;;;;;28.60;14.73;;;;;;;8.40;64.29;101485.75;5017169;28;20216;-65
2022/12/01 08:46:37;;;;;;;25.80;14.30;;;;;;;8.48;64.22;101480.75;5014975;28;20245;-65
2022/12/01 08:49:06;;;;;;;31.30;15.13;;;;;;;8.56;64.39;101478.41;5016664;28;20297;-65
2022/12/01 08:51:35;;;;;;;27.77;15.07;;;;;;;8.62;64.31;101480.59;5016781;28;20215;-65
2022/12/01 08:54:05;;;;;;;27.87;14.80;;;;;;;8.71;64.04;101476.44;5014736;28;20204;-64
2022/12/01 08:56:37;;;;;;;26.67;14.10;;;;;;;8.76;63.21;101476.09;5013594;28;20224;-64
2022/12/01 08:59:05;;;;;;;28.20;14.40;;;;;;;8.73;63.17;101484.25;5013589;28;20250;-63
2022/12/01 09:01:33;;;;;;;30.97;14.43;;;;;;;8.68;62.67;101477.50;5012069;28;20208;-63
2022/12/01 09:04:07;;;;;;;28.33;14.67;;;;;;;8.60;63.18;101477.22;5017393;28;20210;-64
2022/12/01 09:06:39;;;;;;;25.00;12.63;;;;;;;8.68;63.28;101484.59;5016111;28;20315;-64
2022/12/01 09:09:07;;;;;;;28.33;14.90;;;;;;;8.75;63.48;101487.63;5011578;28;20299;-65
2022/12/01 09:11:36;;;;;;;27.63;13.43;;;;;;;8.72;63.14;101485.22;5008356;28;20255;-65
2022/12/01 09:14:04;;;;;;;28.63;14.60;;;;;;;8.73;63.21;101478.97;5010018;28;20331;-65
2022/12/01 09:16:33;;;;;;;29.30;13.47;;;;;;;8.73;63.29;101478.97;5011954;28;20204;-64
2022/12/01 09:19:01;;;;;;;26.00;13.30;;;;;;;8.72;63.44;101480.75;5013111;28;20215;-65
2022/12/01 09:21:31;;;;;;;26.57;13.57;;;;;;;8.76;62.92;101481.41;5017577;28;20232;-65
2022/12/01 09:23:59;;;;;;;25.87;13.30;;;;;;;8.83;62.83;101479.97;5017530;28;20212;-64
2022/12/01 09:26:28;;;;;;;30.03;13.13;;;;;;;8.89;62.74;101480.38;5017101;28;20263;-65
2022/12/01 09:28:59;;;;;;;26.17;14.70;;;;;;;8.93;62.72;101486.28;5017217;28;20215;-65
2022/12/01 09:31:27;;;;;;;27.47;13.93;;;;;;;8.89;62.61;101474.22;5019024;28;20294;-65
2022/12/01 09:33:56;;;;;;;25.77;13.27;;;;;;;8.95;62.58;101484.38;5014932;28;20212;-65
2022/12/01 09:36:24;;;;;;;24.47;12.37;;;;;;;8.98;62.43;101477.06;5011442;28;20204;-64
2022/12/01 09:38:52;;;;;;;23.70;11.90;;;;;;;8.98;62.11;101478.84;5012121;28;20299;-66
2022/12/01 09:41:23;;;;;;;25.73;13.57;;;;;;;9.01;62.29;101486.56;5012837;28;21613;-65
2022/12/01 09:43:56;;;;;;;28.30;12.67;;;;;;;8.93;62.13;101479.19;5013733;28;20660;-68
2022/12/01 09:46:30;;;;;;;25.17;12.57;;;;;;;9.02;61.99;101489.09;5016522;28;20693;-65
2022/12/01 09:49:01;;;;;;;25.33;12.07;;;;;;;8.96;61.01;101483.44;5016926;28;20227;-65
2022/12/01 09:51:33;;;;;;;24.93;11.80;;;;;;;8.89;60.79;101487.47;5018790;28;20251;-65
2022/12/01 09:54:02;;;;;;;25.20;13.20;;;;;;;8.80;61.71;101474.91;5017001;28;20213;-64
2022/12/01 09:56:32;;;;;;;26.07;12.43;;;;;;;8.80;62.28;101474.91;5018639;28;20263;-65
2022/12/01 09:59:02;;;;;;;27.37;12.93;;;;;;;8.85;62.55;101476.28;5019648;28;20200;-64
2022/12/01 10:01:36;;;;;;;23.83;12.63;;;;;;;9.02;61.56;101472.38;5016464;28;20217;-64
2022/12/01 10:04:11;;;;;;;25.10;12.57;;;;;;;9.07;61.36;101478.16;5025044;28;20221;-64
2022/12/01 10:06:45;;;;;;;27.83;13.27;;;;;;;9.13;61.54;101466.31;5019373;28;20233;-63
2022/12/01 10:09:22;;;;;;;22.13;11.43;;;;;;;9.16;60.92;101466.06;5015366;28;20680;-63
2022/12/01 10:11:54;;;;;;;24.83;11.50;;;;;;;9.18;60.65;101462.34;5018483;28;20229;-62
2022/12/01 10:14:22;;;;;;;23.63;12.30;;;;;;;9.22;60.73;101452.38;5015216;28;20240;-64
2022/12/01 10:17:02;;;;;;;20.87;11.53;;;;;;;9.24;61.03;101448.63;5018441;28;20209;-63
2022/12/01 10:19:37;;;;;;;21.87;12.33;;;;;;;9.36;60.96;101453.00;5021262;28;20258;-65
2022/12/01 10:22:19;;;;;;;26.73;12.93;;;;;;;9.44;59.79;101447.13;5015530;28;20215;-64
2022/12/01 10:24:54;;;;;;;23.30;12.50;;;;;;;9.36;60.69;101441.59;5017187;28;20570;-64
2022/12/01 10:27:38;;;;;;;23.40;12.60;;;;;;;9.42;60.55;101439.31;5018952;28;20232;-67
2022/12/01 10:30:09;;;;;;;28.63;12.87;;;;;;;9.54;60.85;101436.69;5015278;28;20209;-66
2022/12/01 10:32:51;;;;;;;24.03;13.27;;;;;;;9.63;59.93;101433.31;5016617;28;20220;-64
2022/12/01 10:35:21;;;;;;;22.57;12.73;;;;;;;9.58;59.82;101432.84;5013367;28;20719;-65
2022/12/01 10:37:53;;;;;;;25.23;12.50;;;;;;;9.58;60.08;101424.91;5014619;28;20212;-65
2022/12/01 10:40:22;;;;;;;19.27;10.90;;;;;;;9.64;59.10;101427.06;5014823;28;20219;-65
2022/12/01 10:42:50;;;;;;;22.10;11.23;;;;;;;9.66;58.52;101420.69;5010940;28;20262;-66
2022/12/01 10:45:22;;;;;;;18.57;10.53;;;;;;;9.57;57.95;101426.72;5015025;28;20219;-65
2022/12/01 10:48:14;;;;;;;16.27;9.50;;;;;;;9.53;57.92;101409.34;5015969;28;20225;-65
2022/12/01 10:50:43;;;;;;;19.87;10.13;;;;;;;9.54;57.23;101413.69;5010763;28;20236;-63
2022/12/01 10:53:30;;;;;;;18.83;10.03;;;;;;;9.51;57.41;101410.44;5013430;28;20218;-63
2022/12/01 10:56:10;;;;;;;18.13;10.33;;;;;;;9.49;57.43;101410.56;5015892;28;20569;-64
2022/12/01 10:58:46;;;;;;;17.60;10.77;;;;;;;9.43;58.67;101409.22;5015267;28;20213;-63
2022/12/01 11:01:22;;;;;;;19.17;10.13;;;;;;;9.50;58.53;101409.59;5013894;28;20205;-64
2022/12/01 11:03:56;;;;;;;18.77;10.40;;;;;;;9.50;57.88;101403.47;5009873;28;20643;-65
2022/12/01 11:06:28;;;;;;;14.87;9.03;;;;;;;9.41;57.11;101397.91;5016329;28;20304;-64
2022/12/01 11:08:59;;;;;;;15.33;9.40;;;;;;;9.36;56.70;101400.06;5011630;28;20229;-64
2022/12/01 11:11:31;;;;;;;21.10;10.23;;;;;;;9.38;57.37;101392.88;5013355;28;20908;-65
2022/12/01 11:14:01;;;;;;;19.37;10.00;;;;;;;9.41;57.48;101389.97;5012166;28;20251;-65
2022/12/01 11:16:39;;;;;;;16.37;9.63;;;;;;;9.42;57.18;101381.06;5018194;28;20217;-64
2022/12/01 11:19:20;;;;;;;18.63;10.47;;;;;;;9.47;58.60;101382.53;5013274;28;20236;-65
2022/12/01 11:21:55;;;;;;;16.90;9.33;;;;;;;9.39;56.83;101391.91;5015227;28;20197;-63
2022/12/01 11:24:33;;;;;;;17.00;10.03;;;;;;;9.40;57.53;101388.31;5008624;28;20550;-64
2022/12/01 11:27:01;;;;;;;17.60;10.53;;;;;;;9.49;57.98;101388.56;5013136;28;20232;-63
2022/12/01 11:29:35;;;;;;;16.83;9.27;;;;;;;9.51;58.01;101390.09;5011540;28;20306;-65
2022/12/01 11:32:16;;;;;;;17.50;9.93;;;;;;;9.57;57.46;101379.03;5012355;28;20223;-65
2022/12/01 11:34:51;;;;;;;19.93;9.77;;;;;;;9.46;56.65;101380.84;5010876;28;20236;-64
2022/12/01 11:37:22;;;;;;;17.57;9.83;;;;;;;9.48;56.87;101378.91;5019027;28;20208;-66
2022/12/01 11:39:52;;;;;;;17.10;10.60;;;;;;;9.49;57.38;101380.59;5020203;28;20231;-64